Time;durP1;ratioP1;P1;durP2;ratioP2;P2;SDS_P1;SDS_P2;PMS_P1;PMS_P2;Temp;Humidity;BMP_temperature;BMP_pressure;BME280_temperature;BME280_humidity;BME280_pressure;Samples;Min_cycle;Max_cycle;Signal;HPM_P1;HPM_P2
2022/09/28 00:01:22;;;;;;;;;;;;;;;15.26;73.16;98192.41;5006194;28;19952;-69
2022/09/28 00:03:50;;;;;;;;;;;;;;;15.24;74.08;98194.50;5008667;28;19972;-68
2022/09/28 00:06:23;;;;;;;;;;;;;;;15.23;75.91;98191.00;5005138;28;20294;-69
2022/09/28 00:08:49;;;;;;;;;;;;;;;15.25;77.58;98190.81;5002216;28;20608;-68
2022/09/28 00:11:15;;;;;;;;;;;;;;;15.27;79.01;98180.78;5002974;28;19925;-69
2022/09/28 00:13:41;;;;;;;;;;;;;;;15.23;81.64;98187.53;5009057;28;20034;-69
2022/09/28 00:16:12;;;;;;;;;;;;;;;15.22;81.57;98185.88;5005211;28;19917;-69
2022/09/28 00:18:38;;;;;;;;;;;;;;;15.22;83.02;98196.53;5003696;28;20302;-69
2022/09/28 00:21:15;;;;;;;;;;;;;;;15.19;82.13;98197.78;5004753;28;20028;-68
2022/09/28 00:26:26;;;;;;;;;;;;;;;14.98;80.73;98190.81;5007098;28;19957;-69
2022/09/28 00:28:57;;;;;;;;;;;;;;;14.78;80.27;98200.59;4988469;28;19925;-68
2022/09/28 00:31:23;;;;;;;;;;;;;;;14.58;80.61;98195.25;4988762;28;19960;-69
2022/09/28 00:33:54;;;;;;;;;;;;;;;14.53;81.63;98186.25;5005228;28;19924;-68
2022/09/28 00:36:19;;;;;;;;;;;;;;;14.52;81.26;98192.56;4985467;28;19979;-66
2022/09/28 00:38:45;;;;;;;;;;;;;;;14.49;81.27;98187.69;5007287;28;19918;-69
2022/09/28 00:41:10;;;;;;;;;;;;;;;14.48;81.25;98188.69;5006481;28;20404;-68
2022/09/28 00:43:36;;;;;;;;;;;;;;;14.47;81.15;98176.44;5005848;28;19918;-69
2022/09/28 00:46:04;;;;;;;;;;;;;;;14.47;81.82;98181.75;5000066;28;20448;-68
2022/09/28 00:48:32;;;;;;;;;;;;;;;14.47;81.51;98187.88;5004647;28;19929;-68
2022/09/28 00:51:01;;;;;;;;;;;;;;;14.45;82.38;98191.72;5003305;28;19921;-70
2022/09/28 00:53:29;;;;;;;;;;;;;;;14.44;81.99;98192.75;5002692;28;19976;-69
2022/09/28 00:55:57;;;;;;;;;;;;;;;14.44;81.91;98192.75;5004844;28;20387;-68
2022/09/28 00:58:25;;;;;;;;;;;;;;;14.42;82.96;98185.00;5003829;28;19921;-69
2022/09/28 01:00:52;;;;;;;;;;;;;;;14.40;82.76;98180.91;5014540;28;19973;-69
2022/09/28 01:03:18;;;;;;;;;;;;;;;14.38;82.63;98167.84;5004319;28;19921;-69
2022/09/28 01:05:45;;;;;;;;;;;;;;;14.40;81.76;98172.94;5005601;28;19917;-69
2022/09/28 01:08:12;;;;;;;;;;;;;;;14.38;81.46;98167.00;4986468;28;19965;-68
2022/09/28 01:10:38;;;;;;;;;;;;;;;14.35;81.97;98163.72;4985881;28;20440;-68
2022/09/28 01:13:03;;;;;;;;;;;;;;;14.33;83.42;98164.94;5006215;28;19917;-69
2022/09/28 01:15:33;;;;;;;;;;;;;;;14.30;84.01;98160.84;4987502;28;19924;-68
2022/09/28 01:18:06;;;;;;;;;;;;;;;14.25;85.56;98168.59;4985493;28;19931;-67
2022/09/28 01:20:55;;;;;;;;;;;;;;;14.11;87.28;98172.22;4983611;28;19917;-68
2022/09/28 01:23:27;;;;;;;;;;;;;;;14.04;88.18;98174.03;4983358;28;20248;-69
2022/09/28 01:25:56;;;;;;;;;;;;;;;14.02;87.55;98168.09;5006079;28;19921;-68
2022/09/28 01:28:26;;;;;;;;;;;;;;;14.00;86.89;98166.66;5003735;28;19917;-69
2022/09/28 01:30:58;;;;;;;;;;;;;;;13.95;87.26;98172.56;5005722;28;19917;-69
2022/09/28 01:33:27;;;;;;;;;;;;;;;13.91;88.37;98166.81;5005714;28;20397;-68
2022/09/28 01:35:56;;;;;;;;;;;;;;;13.88;88.77;98161.09;4986816;28;19940;-68
2022/09/28 01:38:26;;;;;;;;;;;;;;;13.87;87.81;98156.81;5008146;28;19964;-69
2022/09/28 01:40:52;;;;;;;;;;;;;;;13.86;87.85;98149.88;4988364;28;20067;-68
2022/09/28 01:43:21;;;;;;;;;;;;;;;13.86;86.62;98142.75;5006192;28;19917;-69
2022/09/28 01:45:48;;;;;;;;;;;;;;;13.84;86.58;98139.47;5019694;28;19963;-69
2022/09/28 01:48:36;;;;;;;;;;;;;;;13.80;86.47;98132.91;4987245;28;19925;-68
2022/09/28 01:51:04;;;;;;;;;;;;;;;13.68;87.39;98133.69;4989030;28;19917;-68
2022/09/28 01:53:50;;;;;;;;;;;;;;;13.62;87.80;98139.75;5006530;28;19917;-69
2022/09/28 01:56:23;;;;;;;;;;;;;;;13.62;88.27;98135.28;4987628;28;19917;-68
2022/09/28 01:58:52;;;;;;;;;;;;;;;13.61;87.11;98128.34;5003875;28;19918;-68
2022/09/28 02:01:21;;;;;;;;;;;;;;;13.60;89.16;98129.38;5004999;28;19918;-69
2022/09/28 02:03:52;;;;;;;;;;;;;;;13.59;89.44;98129.56;4989138;28;19917;-68
2022/09/28 02:06:21;;;;;;;;;;;;;;;13.58;90.47;98128.75;4986449;28;19924;-69
2022/09/28 02:08:52;;;;;;;;;;;;;;;13.58;90.64;98130.56;4987459;28;20318;-67
2022/09/28 02:11:21;;;;;;;;;;;;;;;13.57;90.11;98136.88;4983411;28;19949;-69
2022/09/28 02:13:53;;;;;;;;;;;;;;;13.58;87.91;98138.53;4985291;28;20275;-69
2022/09/28 02:16:21;;;;;;;;;;;;;;;13.58;88.06;98128.75;4985837;28;20442;-69
2022/09/28 02:18:48;;;;;;;;;;;;;;;13.60;88.31;98120.59;4985298;28;20406;-68
2022/09/28 02:21:16;;;;;;;;;;;;;;;13.59;88.28;98124.25;4985262;28;20301;-69
2022/09/28 02:23:49;;;;;;;;;;;;;;;13.56;88.28;98128.13;5001015;28;19929;-69
2022/09/28 02:26:16;;;;;;;;;;;;;;;13.57;88.55;98126.28;4986503;28;19917;-67
2022/09/28 02:28:42;;;;;;;;;;;;;;;13.56;89.07;98122.00;4984107;28;19968;-69
2022/09/28 02:31:07;;;;;;;;;;;;;;;13.53;89.60;98121.38;4986556;28;19956;-69
2022/09/28 02:33:36;;;;;;;;;;;;;;;13.55;89.08;98123.03;4986212;28;19917;-69
2022/09/28 02:36:05;;;;;;;;;;;;;;;13.55;89.53;98125.69;4982632;28;20600;-68
2022/09/28 02:38:35;;;;;;;;;;;;;;;13.53;89.46;98121.38;4989074;28;19924;-69
2022/09/28 02:41:13;;;;;;;;;;;;;;;13.55;89.40;98117.72;4995017;28;19953;-67
2022/09/28 02:43:54;;;;;;;;;;;;;;;13.55;89.70;98113.22;4991186;28;19917;-68
2022/09/28 02:46:27;;;;;;;;;;;;;;;13.57;90.15;98099.78;4987360;28;20012;-68
2022/09/28 02:49:17;;;;;;;;;;;;;;;13.57;90.70;98105.09;4975414;28;20321;-69
2022/09/28 02:51:43;;;;;;;;;;;;;;;13.53;90.80;98094.88;4993172;28;19979;-69
2022/09/28 02:54:29;;;;;;;;;;;;;;;13.52;90.75;98100.38;5006003;28;20297;-68
2022/09/28 02:57:16;;;;;;;;;;;;;;;13.50;92.61;98097.91;4990255;28;19964;-69
2022/09/28 02:59:47;;;;;;;;;;;;;;;13.46;95.10;98096.69;4976774;28;20377;-68
2022/09/28 03:02:19;;;;;;;;;;;;;;;13.41;96.85;98096.47;4989294;28;20577;-69
2022/09/28 03:05:08;;;;;;;;;;;;;;;13.37;97.65;98100.50;5023652;28;20315;-68
2022/09/28 03:07:37;;;;;;;;;;;;;;;13.30;99.52;98112.91;4985985;28;19917;-69
2022/09/28 03:10:07;;;;;;;;;;;;;;;13.15;100.00;98100.78;4988786;28;19957;-69
2022/09/28 03:12:33;;;;;;;;;;;;;;;13.09;100.00;98104.97;4985949;28;19981;-69
2022/09/28 03:15:11;;;;;;;;;;;;;;;13.01;100.00;98105.97;5007261;28;19968;-68
2022/09/28 03:17:37;;;;;;;;;;;;;;;12.87;100.00;98108.69;5023824;28;20346;-68
2022/09/28 03:20:03;;;;;;;;;;;;;;;12.81;100.00;98101.53;4984837;28;19936;-67
2022/09/28 03:22:29;;;;;;;;;;;;;;;12.74;100.00;98096.16;4990478;28;20008;-68
2022/09/28 03:24:54;;;;;;;;;;;;;;;12.70;100.00;98098.41;4985813;28;20083;-68
2022/09/28 03:27:19;;;;;;;;;;;;;;;12.55;100.00;98100.28;4989457;28;19921;-69
2022/09/28 03:29:45;;;;;;;;;;;;;;;12.47;100.00;98103.09;4989136;28;19925;-68
2022/09/28 03:32:10;;;;;;;;;;;;;;;12.35;100.00;98109.88;5007010;28;20004;-68
2022/09/28 03:34:35;;;;;;;;;;;;;;;12.22;100.00;98121.16;4989747;28;20016;-68
2022/09/28 03:37:01;;;;;;;;;;;;;;;12.16;100.00;98110.50;4992308;28;20370;-68
2022/09/28 03:39:26;;;;;;;;;;;;;;;12.09;100.00;98113.06;4991470;28;20385;-69
2022/09/28 03:41:51;;;;;;;;;;;;;;;12.06;100.00;98115.28;4989173;28;19917;-68
2022/09/28 03:44:18;;;;;;;;;;;;;;;12.07;100.00;98111.63;5022984;28;19972;-69
2022/09/28 03:46:45;;;;;;;;;;;;;;;12.03;100.00;98110.34;4987314;28;19921;-71
2022/09/28 03:49:10;;;;;;;;;;;;;;;11.86;100.00;98105.31;4986275;28;19921;-69
2022/09/28 03:51:35;;;;;;;;;;;;;;;11.97;100.00;98101.34;5004586;28;20011;-69
2022/09/28 03:54:01;;;;;;;;;;;;;;;11.96;100.00;98099.69;4987090;28;19972;-68
2022/09/28 03:56:26;;;;;;;;;;;;;;;11.96;100.00;98099.69;4990251;28;19979;-68
2022/09/28 03:58:51;;;;;;;;;;;;;;;12.03;100.00;98105.06;4988500;28;19913;-69
2022/09/28 04:01:17;;;;;;;;;;;;;;;12.09;100.00;98099.84;4989986;28;20019;-70
2022/09/28 04:03:44;;;;;;;;;;;;;;;12.18;100.00;98097.91;4990774;28;19920;-69
2022/09/28 04:06:09;;;;;;;;;;;;;;;12.27;100.00;98102.06;4987312;28;19917;-68
2022/09/28 04:08:35;;;;;;;;;;;;;;;12.29;100.00;98094.78;4989627;28;20383;-69
2022/09/28 04:11:00;;;;;;;;;;;;;;;12.29;99.78;98100.06;5002561;28;20028;-68
2022/09/28 04:13:26;;;;;;;;;;;;;;;12.30;100.00;98107.00;4987896;28;20051;-69
2022/09/28 04:15:53;;;;;;;;;;;;;;;12.34;100.00;98102.94;4987168;28;19975;-66
2022/09/28 04:18:18;;;;;;;;;;;;;;;12.31;100.00;98108.63;4987428;28;19951;-67
2022/09/28 04:21:07;;;;;;;;;;;;;;;12.33;100.00;98109.25;4986967;28;19917;-69
2022/09/28 04:23:38;;;;;;;;;;;;;;;12.36;100.00;98108.06;5018752;28;19924;-68
2022/09/28 04:26:05;;;;;;;;;;;;;;;12.39;100.00;98111.13;4989678;28;19918;-69
2022/09/28 04:31:20;;;;;;;;;;;;;;;12.44;100.00;98124.63;4987400;28;19969;-68
2022/09/28 04:33:45;;;;;;;;;;;;;;;12.35;100.00;98119.66;4988824;28;19917;-70
2022/09/28 04:36:11;;;;;;;;;;;;;;;12.36;100.00;98137.97;4984448;28;19972;-69
2022/09/28 04:38:37;;;;;;;;;;;;;;;12.33;100.00;98133.06;4990148;28;19917;-70
2022/09/28 04:41:02;;;;;;;;;;;;;;;12.24;100.00;98128.91;4991008;28;19918;-70
2022/09/28 04:43:28;;;;;;;;;;;;;;;11.92;100.00;98129.34;4985705;28;20020;-70
2022/09/28 04:46:00;;;;;;;;;;;;;;;11.88;100.00;98129.72;4982098;28;19913;-70
2022/09/28 04:48:30;;;;;;;;;;;;;;;11.83;100.00;98120.72;5010648;28;19921;-71
2022/09/28 04:51:29;;;;;;;;;;;;;;;11.75;100.00;98128.75;4984953;28;19917;-70
2022/09/28 04:53:55;;;;;;;;;;;;;;;11.61;100.00;98127.72;5020314;28;19922;-69
2022/09/28 04:56:20;;;;;;;;;;;;;;;11.64;100.00;98127.38;4987594;28;19933;-69
2022/09/28 04:58:47;;;;;;;;;;;;;;;11.70;100.00;98137.19;4988841;28;20007;-69
2022/09/28 05:01:15;;;;;;;;;;;;;;;11.79;100.00;98136.09;4987464;28;20319;-69
2022/09/28 05:03:56;;;;;;;;;;;;;;;11.83;100.00;98132.13;5006331;28;19924;-70
2022/09/28 05:06:45;;;;;;;;;;;;;;;11.81;100.00;98126.19;5001962;28;19921;-70
2022/09/28 05:09:11;;;;;;;;;;;;;;;11.85;100.00;98124.81;4983252;28;19924;-72
2022/09/28 05:11:37;;;;;;;;;;;;;;;11.92;100.00;98132.00;5001863;28;20374;-70
2022/09/28 05:14:06;;;;;;;;;;;;;;;11.94;100.00;98128.16;4989729;28;19918;-70
2022/09/28 05:16:32;;;;;;;;;;;;;;;12.01;100.00;98120.31;5003266;28;19918;-70
2022/09/28 05:19:17;;;;;;;;;;;;;;;12.03;100.00;98110.34;5002123;28;19993;-70
2022/09/28 05:21:45;;;;;;;;;;;;;;;12.09;100.00;98114.91;4985029;28;19921;-70
2022/09/28 05:24:11;;;;;;;;;;;;;;;12.12;100.00;98114.53;4990012;28;19939;-71
2022/09/28 05:26:37;;;;;;;;;;;;;;;12.18;100.00;98113.78;4984146;28;20342;-69
2022/09/28 05:29:03;;;;;;;;;;;;;;;12.24;100.00;98111.22;4986063;28;19959;-70
2022/09/28 05:31:37;;;;;;;;;;;;;;;12.29;100.00;98121.22;5005380;28;19971;-69
2022/09/28 05:34:13;;;;;;;;;;;;;;;12.32;100.00;98118.19;4637821;28;9999716;-71
2022/09/28 05:36:41;;;;;;;;;;;;;;;12.37;100.00;98112.34;4984645;28;19921;-71
2022/09/28 05:39:07;;;;;;;;;;;;;;;12.26;100.00;98100.41;5014267;28;19921;-70
2022/09/28 05:41:33;;;;;;;;;;;;;;;12.24;100.00;98094.53;4988407;28;20370;-71
2022/09/28 05:43:59;;;;;;;;;;;;;;;12.26;100.00;98103.06;4655899;28;9999850;-71
2022/09/28 05:46:24;;;;;;;;;;;;;;;12.24;100.00;98097.16;4638916;28;9999894;-70
2022/09/28 05:48:51;;;;;;;;;;;;;;;12.29;100.00;98100.88;4984756;28;19925;-70
2022/09/28 05:51:17;;;;;;;;;;;;;;;12.35;100.00;98107.25;4978171;28;20733;-71
2022/09/28 05:53:43;;;;;;;;;;;;;;;12.39;100.00;98111.13;4983122;28;19969;-72
2022/09/28 05:56:08;;;;;;;;;;;;;;;12.40;100.00;98104.84;4981671;28;19918;-68
2022/09/28 05:58:41;;;;;;;;;;;;;;;12.41;100.00;98098.56;4833160;28;10000636;-71
2022/09/28 06:01:07;;;;;;;;;;;;;;;12.42;100.00;98099.38;4635833;28;10000415;-69
2022/09/28 06:03:33;;;;;;;;;;;;;;;12.45;100.00;98105.09;4983325;28;19922;-69
2022/09/28 06:06:01;;;;;;;;;;;;;;;12.48;100.00;98103.91;5013799;28;20445;-70
2022/09/28 06:08:29;;;;;;;;;;;;;;;12.48;100.00;98110.03;4975978;28;20020;-71
2022/09/28 06:11:05;;;;;;;;;;;;;;;12.54;100.00;98114.56;4984683;28;20024;-71
2022/09/28 06:13:30;;;;;;;;;;;;;;;12.58;100.00;98118.44;4985369;28;20384;-70
2022/09/28 06:15:56;;;;;;;;;;;;;;;12.59;100.00;98119.28;4984503;28;19921;-71
2022/09/28 06:18:21;;;;;;;;;;;;;;;12.61;100.00;98119.88;4985956;28;20410;-70
2022/09/28 06:21:07;;;;;;;;;;;;;;;12.53;100.00;98115.56;5002587;28;19967;-70
2022/09/28 06:23:35;;;;;;;;;;;;;;;12.50;100.00;98113.28;4983429;28;19918;-70
2022/09/28 06:26:01;;;;;;;;;;;;;;;12.43;100.00;98117.69;5001100;28;20446;-70
2022/09/28 06:28:26;;;;;;;;;;;;;;;12.37;100.00;98126.38;4985871;28;19917;-70
2022/09/28 06:30:52;;;;;;;;;;;;;;;12.27;100.00;98128.50;5017840;28;19925;-70
2022/09/28 06:33:18;;;;;;;;;;;;;;;12.26;100.00;98127.69;4985674;28;19922;-71
2022/09/28 06:35:44;;;;;;;;;;;;;;;12.24;100.00;98124.44;5002288;28;20012;-70
2022/09/28 06:38:09;;;;;;;;;;;;;;;12.28;100.00;98119.56;5006200;28;20465;-70
2022/09/28 06:40:36;;;;;;;;;;;;;;;12.35;100.00;98135.50;4987099;28;19917;-71
2022/09/28 06:43:03;;;;;;;;;;;;;;;12.34;100.00;98129.41;4987229;28;19928;-70
2022/09/28 06:45:52;;;;;;;;;;;;;;;12.28;100.00;98130.97;4997701;28;19973;-70
2022/09/28 06:48:36;;;;;;;;;;;;;;;12.34;100.00;98116.19;5003810;28;19925;-71
2022/09/28 06:51:03;;;;;;;;;;;;;;;12.39;100.00;98132.31;4988321;28;20386;-71
2022/09/28 06:53:37;;;;;;;;;;;;;;;12.45;100.00;98131.53;5004314;28;19925;-70
2022/09/28 06:56:18;;;;;;;;;;;;;;;12.49;100.00;98119.56;4989455;28;19924;-71
2022/09/28 06:58:43;;;;;;;;;;;;;;;12.59;100.00;98122.75;4987670;28;19913;-71
2022/09/28 07:01:10;;;;;;;;;;;;;;;12.71;100.00;98126.50;4985693;28;20298;-71
2022/09/28 07:03:53;;;;;;;;;;;;;;;12.79;100.00;98135.28;4975083;28;20012;-70
2022/09/28 07:06:33;;;;;;;;;;;;;;;12.83;100.00;98136.56;4981616;28;19918;-70
2022/09/28 07:09:17;;;;;;;;;;;;;;;12.88;100.00;98142.09;5002297;28;19924;-70
2022/09/28 07:12:03;;;;;;;;;;;;;;;12.88;100.00;98147.41;4993104;28;19952;-70
2022/09/28 07:14:48;;;;;;;;;;;;;;;12.91;100.00;98147.81;5003490;28;19924;-73
2022/09/28 07:17:14;;;;;;;;;;;;;;;12.96;100.00;98141.97;4987059;28;19923;-72
2022/09/28 07:19:41;;;;;;;;;;;;;;;12.99;100.00;98139.75;4982383;28;19918;-71
2022/09/28 07:22:06;;;;;;;;;;;;;;;13.07;100.00;98147.56;5000913;28;19921;-71
2022/09/28 07:24:31;;;;;;;;;;;;;;;13.16;100.00;98147.44;4982830;28;19972;-71
2022/09/28 07:27:17;;;;;;;;;;;;;;;13.24;100.00;98150.78;5005443;28;19918;-71
2022/09/28 07:30:04;;;;;;;;;;;;;;;13.32;100.00;98153.25;4996635;28;19918;-74
2022/09/28 07:32:41;;;;;;;;;;;;;;;13.39;100.00;98158.59;5001478;28;19957;-71
2022/09/28 07:35:19;;;;;;;;;;;;;;;13.43;100.00;98163.31;4998369;28;20417;-68
2022/09/28 07:37:56;;;;;;;;;;;;;;;13.41;100.00;98170.66;4982065;28;19921;-69
2022/09/28 07:43:06;;;;;;;;;;;;;;;13.44;100.00;98164.94;4998930;28;19929;-69
2022/09/28 07:45:34;;;;;;;;;;;;;;;13.50;100.00;98164.16;4997958;28;20778;-68
2022/09/28 07:48:00;;;;;;;;;;;;;;;13.59;99.69;98161.38;4981601;28;19991;-68
2022/09/28 07:50:25;;;;;;;;;;;;;;;13.71;99.27;98170.41;4997794;28;20072;-69
2022/09/28 07:52:59;;;;;;;;;;;;;;;13.81;99.05;98166.38;4979212;28;20635;-71
2022/09/28 07:55:30;;;;;;;;;;;;;;;13.92;97.86;98179.06;4996232;28;19951;-70
2022/09/28 07:58:06;;;;;;;;;;;;;;;14.01;97.26;98177.09;4981358;28;19917;-69
2022/09/28 08:00:53;;;;;;;;;;;;;;;14.09;96.80;98168.94;4979744;28;20012;-69
2022/09/28 08:03:20;;;;;;;;;;;;;;;14.13;97.20;98170.19;4981601;28;20358;-69
2022/09/28 08:05:46;;;;;;;;;;;;;;;14.19;96.79;98174.72;4981232;28;19925;-70
2022/09/28 08:08:13;;;;;;;;;;;;;;;14.26;96.27;98172.88;4980897;28;19925;-69
2022/09/28 08:10:40;;;;;;;;;;;;;;;14.31;95.34;98178.38;4979076;28;20465;-71
2022/09/28 08:13:25;;;;;;;;;;;;;;;14.35;95.05;98174.34;4998505;28;19927;-69
2022/09/28 08:16:02;;;;;;;;;;;;;;;14.39;94.40;98181.91;4998844;28;19921;-69
2022/09/28 08:18:36;;;;;;;;;;;;;;;14.44;94.14;98184.78;4978475;28;19922;-71
2022/09/28 08:23:47;;;;;;;;;;;;;;;14.57;92.99;98179.50;4980391;28;20004;-70
2022/09/28 08:26:13;;;;;;;;;;;;;;;14.58;93.63;98173.19;4981130;28;19926;-70
2022/09/28 08:28:39;;;;;;;;;;;;;;;14.62;93.84;98172.56;4979315;28;19932;-69
2022/09/28 08:31:24;;;;;;;;;;;;;;;14.63;93.70;98171.56;4997085;28;19917;-68
2022/09/28 08:34:10;;;;;;;;;;;;;;;14.73;93.75;98166.66;4980529;28;19941;-69
2022/09/28 08:36:56;;;;;;;;;;;;;;;14.85;93.08;98164.22;4971345;28;19948;-68
2022/09/28 08:39:40;;;;;;;;;;;;;;;14.94;93.23;98162.19;4996692;28;20159;-67
2022/09/28 08:42:41;;;;;;;;;;;;;;;14.97;93.16;98167.91;4986592;28;20043;-69
2022/09/28 08:45:34;;;;;;;;;;;;;;;15.01;92.27;98174.47;4981799;28;20370;-68
2022/09/28 08:51:38;;;;;;;;;;;;;;;15.10;90.60;98162.59;4980265;28;19928;-70
2022/09/28 08:54:39;;;;;;;;;;;;;;;15.16;90.33;98167.09;4997827;28;20091;-69
2022/09/28 08:57:16;;;;;;;;;;;;;;;15.22;90.61;98175.25;4980991;28;19948;-68
2022/09/28 08:59:48;;;;;;;;;;;;;;;15.27;89.27;98172.81;4987277;28;19921;-72
2022/09/28 09:02:24;;;;;;;;;;;;;;;15.30;88.32;98167.09;4988482;28;19971;-70
2022/09/28 09:04:52;;;;;;;;;;;;;;;15.35;88.03;98169.94;4987761;28;20016;-72
2022/09/28 09:07:43;;;;;;;;;;;;;;;15.40;88.33;98167.47;5004539;28;19921;-71
2022/09/28 09:10:10;;;;;;;;;;;;;;;15.43;87.97;98167.09;4991291;28;20499;-71
2022/09/28 09:12:35;;;;;;;;;;;;;;;15.45;87.79;98167.66;5006749;28;19949;-71
2022/09/28 09:15:04;;;;;;;;;;;;;;;15.48;87.77;98164.63;4985527;28;19927;-71
2022/09/28 09:17:33;;;;;;;;;;;;;;;15.52;87.29;98165.84;4987965;28;19921;-71
2022/09/28 09:20:28;;;;;;;;;;;;;;;15.59;87.69;98166.66;4982782;28;19987;-71
2022/09/28 09:23:16;;;;;;;;;;;;;;;15.63;86.95;98167.06;4985889;28;19913;-70
2022/09/28 09:25:53;;;;;;;;;;;;;;;15.62;86.89;98155.59;4985421;28;19925;-70
2022/09/28 09:28:30;;;;;;;;;;;;;;;15.62;86.85;98152.94;4986531;28;19929;-70
2022/09/28 09:31:07;;;;;;;;;;;;;;;15.66;87.02;98166.66;4985961;28;19975;-71
2022/09/28 09:33:56;;;;;;;;;;;;;;;15.72;87.36;98156.00;4983907;28;20437;-71
2022/09/28 09:36:54;;;;;;;;;;;;;;;15.78;87.23;98159.66;5002261;28;19928;-71
2022/09/28 09:39:43;;;;;;;;;;;;;;;15.80;86.98;98155.75;4994741;28;19956;-71
2022/09/28 09:42:54;;;;;;;;;;;;;;;15.80;87.48;98168.22;4943219;29;19965;-70
2022/09/28 09:45:47;;;;;;;;;;;;;;;15.78;87.52;98164.97;4997246;28;19917;-69
2022/09/28 09:48:59;;;;;;;;;;;;;;;15.81;87.66;98154.72;5001481;28;19918;-70
2022/09/28 09:51:24;;;;;;;;;;;;;;;15.77;87.15;98156.19;4990957;28;19924;-70
2022/09/28 09:54:02;;;;;;;;;;;;;;;15.80;87.48;98150.44;4986159;28;19922;-68
2022/09/28 09:56:39;;;;;;;;;;;;;;;15.83;87.03;98146.53;4982119;28;20008;-69
2022/09/28 09:59:13;;;;;;;;;;;;;;;15.79;86.95;98151.44;4984068;28;19929;-68
2022/09/28 10:02:25;;;;;;;;;;;;;;;15.88;87.45;98150.22;4990349;28;19917;-68
2022/09/28 10:05:20;;;;;;;;;;;;;;;15.95;87.33;98144.88;4986382;28;19922;-68
2022/09/28 10:07:54;;;;;;;;;;;;;;;15.92;87.20;98140.75;4982148;28;19971;-70
2022/09/28 10:10:26;;;;;;;;;;;;;;;15.94;87.70;98138.72;5018699;28;19921;-70
2022/09/28 10:12:55;;;;;;;;;;;;;;;15.94;87.84;98128.09;5003622;28;20220;-70
2022/09/28 10:15:23;;;;;;;;;;;;;;;15.93;88.09;98126.44;4985283;28;19924;-69
2022/09/28 10:18:09;;;;;;;;;;;;;;;15.95;88.45;98127.06;4983767;28;19921;-68
2022/09/28 10:20:53;;;;;;;;;;;;;;;16.06;88.06;98130.06;4985977;28;19952;-69
2022/09/28 10:23:42;;;;;;;;;;;;;;;16.16;87.50;98131.25;4990716;28;19918;-69
2022/09/28 10:26:21;;;;;;;;;;;;;;;16.23;87.46;98131.22;5003672;28;20356;-70
2022/09/28 10:28:50;;;;;;;;;;;;;;;16.31;86.95;98123.00;4989282;28;20397;-70
2022/09/28 10:31:34;;;;;;;;;;;;;;;16.48;86.79;98129.44;4981438;28;19944;-70
2022/09/28 10:34:00;;;;;;;;;;;;;;;16.63;86.75;98119.31;4985692;28;19940;-70
2022/09/28 10:36:26;;;;;;;;;;;;;;;16.72;86.72;98114.53;4985072;28;19917;-69
2022/09/28 10:38:53;;;;;;;;;;;;;;;16.81;86.78;98117.75;4984306;28;19918;-70
2022/09/28 10:41:25;;;;;;;;;;;;;;;16.97;86.38;98107.34;4984539;28;20430;-71
2022/09/28 10:44:07;;;;;;;;;;;;;;;17.04;85.67;98109.97;4984414;28;19924;-70
2022/09/28 10:47:04;;;;;;;;;;;;;;;17.10;85.83;98117.06;4987365;28;19925;-70
2022/09/28 10:49:44;;;;;;;;;;;;;;;17.12;86.45;98110.50;4987423;28;19956;-71
2022/09/28 10:52:28;;;;;;;;;;;;;;;17.16;86.17;98105.53;4988972;28;19963;-70
2022/09/28 10:54:54;;;;;;;;;;;;;;;17.26;86.25;98100.50;5009645;28;19918;-71
2022/09/28 10:57:31;;;;;;;;;;;;;;;17.42;86.67;98094.63;4986272;28;19921;-70
2022/09/28 11:00:06;;;;;;;;;;;;;;;17.61;86.07;98097.31;4980912;28;19928;-71
2022/09/28 11:02:52;;;;;;;;;;;;;;;17.65;85.63;98093.16;5006554;28;19917;-70
2022/09/28 11:05:22;;;;;;;;;;;;;;;17.65;85.74;98085.16;4988017;28;19941;-69
2022/09/28 11:07:51;;;;;;;;;;;;;;;17.64;85.87;98083.53;4985901;28;19924;-72
2022/09/28 11:10:24;;;;;;;;;;;;;;;17.70;85.73;98086.13;4985617;28;19928;-70
2022/09/28 11:12:52;;;;;;;;;;;;;;;17.83;85.11;98064.63;4990776;28;19989;-70
2022/09/28 11:15:20;;;;;;;;;;;;;;;18.06;84.80;98066.56;4988636;28;20371;-71
2022/09/28 11:17:47;;;;;;;;;;;;;;;18.27;83.63;98066.03;4989635;28;19913;-70
2022/09/28 11:20:21;;;;;;;;;;;;;;;18.39;82.42;98061.56;4983341;28;19917;-69
2022/09/28 11:22:47;;;;;;;;;;;;;;;18.51;82.01;98061.56;4987776;28;19971;-71
2022/09/28 11:25:19;;;;;;;;;;;;;;;18.62;82.08;98057.31;5018845;28;19988;-71
2022/09/28 11:27:51;;;;;;;;;;;;;;;18.77;81.97;98049.69;4989971;28;20004;-70
2022/09/28 11:30:22;;;;;;;;;;;;;;;18.88;81.99;98051.56;4989986;28;20409;-72
2022/09/28 11:33:18;;;;;;;;;;;;;;;19.00;81.67;98055.03;4976779;28;19918;-72
2022/09/28 11:36:13;;;;;;;;;;;;;;;19.05;80.84;98057.81;4941178;28;20061;-70
2022/09/28 11:38:40;;;;;;;;;;;;;;;19.22;80.90;98060.59;4984993;28;20023;-72
2022/09/28 11:41:43;;;;;;;;;;;;;;;19.44;81.70;98071.53;5002558;28;19928;-73
2022/09/28 11:44:21;;;;;;;;;;;;;;;19.61;81.48;98054.50;4982447;28;19956;-71
2022/09/28 11:47:19;;;;;;;;;;;;;;;19.74;80.91;98048.06;5003937;28;20066;-72
2022/09/28 11:50:07;;;;;;;;;;;;;;;19.74;82.77;98045.41;4986620;28;19922;-72
2022/09/28 11:52:40;;;;;;;;;;;;;;;19.81;81.40;98048.75;4989139;28;19925;-71
2022/09/28 11:55:23;;;;;;;;;;;;;;;19.77;79.95;98047.63;4984914;28;19975;-71
2022/09/28 11:57:53;;;;;;;;;;;;;;;19.72;80.73;98041.34;4983412;28;19919;-71
2022/09/28 12:00:21;;;;;;;;;;;;;;;19.63;81.25;98046.25;4984829;28;20367;-69
2022/09/28 12:02:55;;;;;;;;;;;;;;;19.79;81.42;98037.47;4986626;28;20405;-70
2022/09/28 12:05:29;;;;;;;;;;;;;;;20.02;80.59;98045.44;4988116;28;20043;-71
2022/09/28 12:07:58;;;;;;;;;;;;;;;20.26;79.55;98037.28;5002647;28;19971;-72
2022/09/28 12:10:51;;;;;;;;;;;;;;;20.46;78.32;98043.00;4964883;28;20386;-71
2022/09/28 12:13:26;;;;;;;;;;;;;;;20.51;77.72;98040.41;4990963;28;19935;-73
2022/09/28 12:15:58;;;;;;;;;;;;;;;20.66;77.19;98043.34;4978615;28;19972;-74
2022/09/28 12:18:47;;;;;;;;;;;;;;;20.91;75.67;98034.06;5004968;28;19948;-73
2022/09/28 12:21:29;;;;;;;;;;;;;;;21.23;74.27;98022.47;4993402;28;19925;-71
2022/09/28 12:23:59;;;;;;;;;;;;;;;21.33;71.90;98021.78;5003884;28;20404;-74
2022/09/28 12:26:41;;;;;;;;;;;;;;;21.38;72.06;98029.94;5007361;28;20374;-74
2022/09/28 12:29:12;;;;;;;;;;;;;;;21.38;72.19;98027.25;4984086;28;19917;-74
2022/09/28 12:31:50;;;;;;;;;;;;;;;21.30;72.17;98019.63;5003725;28;19917;-72
2022/09/28 12:34:16;;;;;;;;;;;;;;;21.30;71.03;98013.44;5007354;28;20389;-73
2022/09/28 12:36:47;;;;;;;;;;;;;;;21.44;71.08;98017.38;5004080;28;20001;-73
2022/09/28 12:39:31;;;;;;;;;;;;;;;21.65;70.46;98006.63;5005711;28;20011;-73
2022/09/28 12:42:13;;;;;;;;;;;;;;;21.79;68.79;98006.25;5003628;28;19925;-72
2022/09/28 12:44:44;;;;;;;;;;;;;;;21.93;68.80;98000.22;5001687;28;19948;-72
2022/09/28 12:47:30;;;;;;;;;;;;;;;22.13;67.24;97988.91;5003872;28;19917;-73
2022/09/28 12:49:55;;;;;;;;;;;;;;;22.35;66.32;97989.63;5002998;28;20375;-74
2022/09/28 12:52:30;;;;;;;;;;;;;;;22.59;65.86;97986.59;5002745;28;19971;-73
2022/09/28 12:55:10;;;;;;;;;;;;;;;22.78;65.09;97985.16;5006316;28;19929;-80
2022/09/28 12:57:39;;;;;;;;;;;;;;;22.71;66.74;97984.53;5000240;28;20341;-77
2022/09/28 13:00:10;;;;;;;;;;;;;;;22.67;67.11;97984.25;5003878;28;19917;-74
2022/09/28 13:02:54;;;;;;;;;;;;;;;22.76;67.77;97971.94;5000413;28;20021;-74
2022/09/28 13:05:23;;;;;;;;;;;;;;;22.80;67.73;97967.66;4999093;28;19940;-74
2022/09/28 13:07:55;;;;;;;;;;;;;;;22.95;67.60;97966.97;4993296;28;19940;-74
2022/09/28 13:10:38;;;;;;;;;;;;;;;23.13;67.03;97961.13;4996665;28;19921;-75
2022/09/28 13:13:13;;;;;;;;;;;;;;;23.05;66.68;97964.31;4996498;28;19922;-76
2022/09/28 13:15:50;;;;;;;;;;;;;;;23.01;66.55;97963.22;4996793;28;19917;-74
2022/09/28 13:18:26;;;;;;;;;;;;;;;23.13;66.23;97955.75;4996837;28;20288;-75
2022/09/28 13:21:00;;;;;;;;;;;;;;;23.47;65.41;97955.38;4998688;28;20444;-75
2022/09/28 13:23:32;;;;;;;;;;;;;;;23.81;63.67;97961.94;4996128;28;20336;-74
2022/09/28 13:26:06;;;;;;;;;;;;;;;24.05;62.15;97952.28;4995362;28;19924;-73
2022/09/28 13:28:32;;;;;;;;;;;;;;;24.28;60.20;97944.75;4982588;28;19925;-75